sensor_id;sensor_type;location;lat;lon;timestamp;pressure;altitude;pressure_sealevel;temperature;humidity
32320;BME280;19080;51.750;5.888;2023-10-09T00:01:44;101817.03;;;13.77;100.00
32320;BME280;19080;51.750;5.888;2023-10-09T00:04:11;101810.00;;;13.82;100.00
32320;BME280;19080;51.750;5.888;2023-10-09T00:06:38;101815.28;;;13.79;100.00
32320;BME280;19080;51.750;5.888;2023-10-09T00:09:05;101820.47;;;13.70;100.00
32320;BME280;19080;51.750;5.888;2023-10-09T00:11:51;101815.69;;;13.52;100.00
32320;BME280;19080;51.750;5.888;2023-10-09T00:14:25;101814.66;;;13.45;100.00
32320;BME280;19080;51.750;5.888;2023-10-09T00:16:52;101791.31;;;13.32;100.00
32320;BME280;19080;51.750;5.888;2023-10-09T00:19:37;101810.91;;;13.34;100.00
32320;BME280;19080;51.750;5.888;2023-10-09T00:22:04;101792.94;;;13.25;100.00
32320;BME280;19080;51.750;5.888;2023-10-09T00:24:32;101780.47;;;13.23;100.00
32320;BME280;19080;51.750;5.888;2023-10-09T00:26:59;101792.06;;;13.25;100.00
32320;BME280;19080;51.750;5.888;2023-10-09T00:29:46;101776.72;;;13.15;100.00
32320;BME280;19080;51.750;5.888;2023-10-09T00:32:13;101799.97;;;13.20;100.00
32320;BME280;19080;51.750;5.888;2023-10-09T00:34:40;101792.81;;;13.18;100.00
32320;BME280;19080;51.750;5.888;2023-10-09T00:37:10;101794.59;;;13.19;100.00
32320;BME280;19080;51.750;5.888;2023-10-09T00:39:45;101792.72;;;13.15;100.00
32320;BME280;19080;51.750;5.888;2023-10-09T00:42:15;101791.00;;;13.17;100.00
32320;BME280;19080;51.750;5.888;2023-10-09T00:44:52;101785.47;;;13.08;100.00
32320;BME280;19080;51.750;5.888;2023-10-09T00:47:20;101747.72;;;12.86;100.00
32320;BME280;19080;51.750;5.888;2023-10-09T00:49:49;101790.81;;;13.09;100.00
32320;BME280;19080;51.750;5.888;2023-10-09T00:52:16;101795.25;;;13.09;100.00
32320;BME280;19080;51.750;5.888;2023-10-09T00:54:49;101791.72;;;13.10;100.00
32320;BME280;19080;51.750;5.888;2023-10-09T00:57:19;101769.34;;;13.01;100.00
32320;BME280;19080;51.750;5.888;2023-10-09T00:59:54;101783.72;;;13.10;100.00
32320;BME280;19080;51.750;5.888;2023-10-09T01:02:29;101788.22;;;13.12;100.00
32320;BME280;19080;51.750;5.888;2023-10-09T01:05:03;101780.13;;;13.08;100.00
32320;BME280;19080;51.750;5.888;2023-10-09T01:07:47;101781.03;;;13.08;100.00
32320;BME280;19080;51.750;5.888;2023-10-09T01:10:15;101781.91;;;13.09;100.00
32320;BME280;19080;51.750;5.888;2023-10-09T01:12:45;101785.47;;;13.08;100.00
32320;BME280;19080;51.750;5.888;2023-10-09T01:15:14;101786.28;;;13.05;100.00
32320;BME280;19080;51.750;5.888;2023-10-09T01:18:04;101795.16;;;13.04;100.00
32320;BME280;19080;51.750;5.888;2023-10-09T01:20:33;101788.00;;;13.01;100.00
32320;BME280;19080;51.750;5.888;2023-10-09T01:23:09;101777.31;;;13.00;100.00
32320;BME280;19080;51.750;5.888;2023-10-09T01:25:37;101738.75;;;12.83;100.00
32320;BME280;19080;51.750;5.888;2023-10-09T01:28:12;101777.56;;;13.14;100.00
32320;BME280;19080;51.750;5.888;2023-10-09T01:30:43;101780.41;;;13.20;100.00
32320;BME280;19080;51.750;5.888;2023-10-09T01:33:09;101742.91;;;13.12;100.00
32320;BME280;19080;51.750;5.888;2023-10-09T01:35:42;101734.97;;;13.15;100.00
32320;BME280;19080;51.750;5.888;2023-10-09T01:38:15;101767.31;;;13.32;100.00
32320;BME280;19080;51.750;5.888;2023-10-09T01:40:42;101770.13;;;13.41;100.00
32320;BME280;19080;51.750;5.888;2023-10-09T01:43:10;101763.94;;;13.42;100.00
32320;BME280;19080;51.750;5.888;2023-10-09T01:45:37;101763.13;;;13.46;100.00
32320;BME280;19080;51.750;5.888;2023-10-09T01:48:13;101756.00;;;13.45;100.00
32320;BME280;19080;51.750;5.888;2023-10-09T01:50:50;101767.84;;;13.62;100.00
32320;BME280;19080;51.750;5.888;2023-10-09T01:53:17;101758.13;;;13.66;100.00
32320;BME280;19080;51.750;5.888;2023-10-09T01:55:49;101768.94;;;13.74;100.00
32320;BME280;19080;51.750;5.888;2023-10-09T01:58:21;101763.66;;;13.77;100.00
32320;BME280;19080;51.750;5.888;2023-10-09T02:00:48;101764.66;;;13.83;100.00
32320;BME280;19080;51.750;5.888;2023-10-09T02:03:20;101747.69;;;13.80;100.00
32320;BME280;19080;51.750;5.888;2023-10-09T02:05:52;101759.50;;;13.95;100.00
32320;BME280;19080;51.750;5.888;2023-10-09T02:08:30;101771.22;;;14.05;100.00
32320;BME280;19080;51.750;5.888;2023-10-09T02:11:01;101766.81;;;14.09;100.00
32320;BME280;19080;51.750;5.888;2023-10-09T02:13:29;101751.75;;;14.12;100.00
32320;BME280;19080;51.750;5.888;2023-10-09T02:15:57;101733.97;;;14.14;100.00
32320;BME280;19080;51.750;5.888;2023-10-09T02:18:42;101750.22;;;14.29;100.00
32320;BME280;19080;51.750;5.888;2023-10-09T02:21:25;101757.44;;;14.37;100.00
32320;BME280;19080;51.750;5.888;2023-10-09T02:23:55;101744.03;;;14.33;100.00
32320;BME280;19080;51.750;5.888;2023-10-09T02:26:23;101737.91;;;14.41;100.00
32320;BME280;19080;51.750;5.888;2023-10-09T02:28:59;101718.25;;;14.36;100.00
32320;BME280;19080;51.750;5.888;2023-10-09T02:31:27;101740.81;;;14.54;100.00
32320;BME280;19080;51.750;5.888;2023-10-09T02:34:03;101731.97;;;14.60;100.00
32320;BME280;19080;51.750;5.888;2023-10-09T02:36:32;101725.78;;;14.64;100.00
32320;BME280;19080;51.750;5.888;2023-10-09T02:39:01;101727.66;;;14.71;100.00
32320;BME280;19080;51.750;5.888;2023-10-09T02:41:32;101730.41;;;14.77;100.00
32320;BME280;19080;51.750;5.888;2023-10-09T02:44:01;101720.69;;;14.84;100.00
32320;BME280;19080;51.750;5.888;2023-10-09T02:46:46;101705.50;;;14.81;100.00
32320;BME280;19080;51.750;5.888;2023-10-09T02:49:12;101719.84;;;14.88;100.00
32320;BME280;19080;51.750;5.888;2023-10-09T02:51:42;101704.78;;;14.94;100.00
32320;BME280;19080;51.750;5.888;2023-10-09T02:54:09;101706.53;;;14.92;100.00
32320;BME280;19080;51.750;5.888;2023-10-09T02:56:50;101700.28;;;14.90;100.00
32320;BME280;19080;51.750;5.888;2023-10-09T02:59:35;101708.41;;;15.00;100.00
32320;BME280;19080;51.750;5.888;2023-10-09T03:02:05;101699.56;;;15.07;100.00
32320;BME280;19080;51.750;5.888;2023-10-09T03:04:32;101715.69;;;15.16;100.00
32320;BME280;19080;51.750;5.888;2023-10-09T03:06:59;101703.25;;;15.18;100.00
32320;BME280;19080;51.750;5.888;2023-10-09T03:09:26;101648.63;;;14.93;100.00
32320;BME280;19080;51.750;5.888;2023-10-09T03:11:57;101692.59;;;15.24;100.00
32320;BME280;19080;51.750;5.888;2023-10-09T03:14:33;101697.94;;;15.24;100.00
32320;BME280;19080;51.750;5.888;2023-10-09T03:17:02;101689.03;;;15.25;100.00
32320;BME280;19080;51.750;5.888;2023-10-09T03:19:31;101682.78;;;15.21;100.00
32320;BME280;19080;51.750;5.888;2023-10-09T03:22:07;101687.19;;;15.18;100.00
32320;BME280;19080;51.750;5.888;2023-10-09T03:24:38;101677.38;;;15.15;100.00
32320;BME280;19080;51.750;5.888;2023-10-09T03:27:08;101680.06;;;15.18;100.00
32320;BME280;19080;51.750;5.888;2023-10-09T03:29:35;101659.44;;;15.07;100.00
32320;BME280;19080;51.750;5.888;2023-10-09T03:32:02;101681.81;;;15.13;100.00
32320;BME280;19080;51.750;5.888;2023-10-09T03:34:28;101678.31;;;15.20;100.00
32320;BME280;19080;51.750;5.888;2023-10-09T03:36:57;101667.56;;;15.16;100.00
32320;BME280;19080;51.750;5.888;2023-10-09T03:39:47;101667.63;;;15.23;100.00
32320;BME280;19080;51.750;5.888;2023-10-09T03:42:13;101642.56;;;15.11;100.00
32320;BME280;19080;51.750;5.888;2023-10-09T03:44:51;101672.09;;;15.23;100.00
32320;BME280;19080;51.750;5.888;2023-10-09T03:47:24;101674.81;;;15.29;100.00
32320;BME280;19080;51.750;5.888;2023-10-09T03:49:51;101662.31;;;15.25;100.00
32320;BME280;19080;51.750;5.888;2023-10-09T03:52:20;101676.63;;;15.33;100.00
32320;BME280;19080;51.750;5.888;2023-10-09T03:54:50;101676.66;;;15.36;100.00
32320;BME280;19080;51.750;5.888;2023-10-09T03:57:17;101661.50;;;15.34;100.00
32320;BME280;19080;51.750;5.888;2023-10-09T03:59:46;101664.19;;;15.38;100.00
32320;BME280;19080;51.750;5.888;2023-10-09T04:02:14;101674.03;;;15.41;100.00
32320;BME280;19080;51.750;5.888;2023-10-09T04:04:42;101663.25;;;15.33;100.00
32320;BME280;19080;51.750;5.888;2023-10-09T04:07:14;101656.16;;;15.37;100.00
32320;BME280;19080;51.750;5.888;2023-10-09T04:09:44;101664.22;;;15.41;100.00
32320;BME280;19080;51.750;5.888;2023-10-09T04:12:29;101667.81;;;15.43;100.00
32320;BME280;19080;51.750;5.888;2023-10-09T04:14:57;101668.72;;;15.44;100.00
32320;BME280;19080;51.750;5.888;2023-10-09T04:17:27;101659.78;;;15.43;100.00
32320;BME280;19080;51.750;5.888;2023-10-09T04:20:03;101659.78;;;15.43;100.00
32320;BME280;19080;51.750;5.888;2023-10-09T04:22:42;101667.81;;;15.43;100.00
32320;BME280;19080;51.750;5.888;2023-10-09T04:25:20;101670.50;;;15.46;100.00
32320;BME280;19080;51.750;5.888;2023-10-09T04:27:56;101658.94;;;15.50;100.00
32320;BME280;19080;51.750;5.888;2023-10-09T04:30:41;101671.47;;;15.54;100.00
32320;BME280;19080;51.750;5.888;2023-10-09T04:33:11;101694.69;;;15.55;100.00
32320;BME280;19080;51.750;5.888;2023-10-09T04:36:00;101655.16;;;15.24;100.00
32320;BME280;19080;51.750;5.888;2023-10-09T04:39:03;101700.00;;;15.52;100.00
32320;BME280;19080;51.750;5.888;2023-10-09T04:41:30;101690.19;;;15.53;100.00
32320;BME280;19080;51.750;5.888;2023-10-09T04:44:19;101709.03;;;15.67;100.00
32320;BME280;19080;51.750;5.888;2023-10-09T04:46:50;101709.06;;;15.70;100.00
32320;BME280;19080;51.750;5.888;2023-10-09T04:49:39;101705.59;;;15.81;100.00
32320;BME280;19080;51.750;5.888;2023-10-09T04:52:28;101706.53;;;15.88;100.00
32320;BME280;19080;51.750;5.888;2023-10-09T04:54:55;101702.13;;;15.96;100.00
32320;BME280;19080;51.750;5.888;2023-10-09T04:57:38;101696.78;;;15.96;100.00
32320;BME280;19080;51.750;5.888;2023-10-09T05:00:17;101690.53;;;15.95;100.00
32320;BME280;19080;51.750;5.888;2023-10-09T05:02:55;101705.69;;;15.93;100.00
32320;BME280;19080;51.750;5.888;2023-10-09T05:05:25;101694.94;;;15.89;100.00
32320;BME280;19080;51.750;5.888;2023-10-09T05:08:12;101677.00;;;15.76;100.00
32320;BME280;19080;51.750;5.888;2023-10-09T05:10:46;101698.47;;;15.85;100.00
32320;BME280;19080;51.750;5.888;2023-10-09T05:13:44;101694.91;;;15.86;100.00
32320;BME280;19080;51.750;5.888;2023-10-09T05:16:13;101686.94;;;15.93;100.00
32320;BME280;19080;51.750;5.888;2023-10-09T05:18:54;101679.81;;;15.97;100.00
32320;BME280;19080;51.750;5.888;2023-10-09T05:21:36;101685.19;;;15.99;100.00
32320;BME280;19080;51.750;5.888;2023-10-09T05:24:11;101668.13;;;15.86;100.00
32320;BME280;19080;51.750;5.888;2023-10-09T05:26:40;101694.09;;;15.96;100.00
32320;BME280;19080;51.750;5.888;2023-10-09T05:32:06;101700.38;;;16.01;100.00
32320;BME280;19080;51.750;5.888;2023-10-09T05:34:43;101714.75;;;16.14;100.00
32320;BME280;19080;51.750;5.888;2023-10-09T05:37:30;101707.59;;;16.11;100.00
32320;BME280;19080;51.750;5.888;2023-10-09T05:40:04;101722.84;;;16.26;100.00
32320;BME280;19080;51.750;5.888;2023-10-09T05:42:49;101717.53;;;16.32;100.00
32320;BME280;19080;51.750;5.888;2023-10-09T05:45:27;101713.06;;;16.34;100.00
32320;BME280;19080;51.750;5.888;2023-10-09T05:48:17;101720.22;;;16.34;100.00
32320;BME280;19080;51.750;5.888;2023-10-09T05:50:44;101730.97;;;16.37;100.00
32320;BME280;19080;51.750;5.888;2023-10-09T05:53:22;101704.16;;;16.34;100.00
32320;BME280;19080;51.750;5.888;2023-10-09T05:56:07;101730.97;;;16.40;100.00
32320;BME280;19080;51.750;5.888;2023-10-09T05:58:53;101729.19;;;16.39;100.00
32320;BME280;19080;51.750;5.888;2023-10-09T06:01:38;101747.09;;;16.46;100.00
32320;BME280;19080;51.750;5.888;2023-10-09T06:04:17;101749.78;;;16.49;100.00
32320;BME280;19080;51.750;5.888;2023-10-09T06:06:46;101734.56;;;16.42;100.00
32320;BME280;19080;51.750;5.888;2023-10-09T06:09:14;101752.44;;;16.47;100.00
32320;BME280;19080;51.750;5.888;2023-10-09T06:11:43;101747.13;;;16.52;100.00
32320;BME280;19080;51.750;5.888;2023-10-09T06:14:17;101739.97;;;16.54;100.00
32320;BME280;19080;51.750;5.888;2023-10-09T06:17:10;101751.59;;;16.54;100.00
32320;BME280;19080;51.750;5.888;2023-10-09T06:19:39;101747.13;;;16.55;100.00
32320;BME280;19080;51.750;5.888;2023-10-09T06:22:15;101739.06;;;16.52;100.00
32320;BME280;19080;51.750;5.888;2023-10-09T06:25:16;101760.53;;;16.52;100.00
32320;BME280;19080;51.750;5.888;2023-10-09T06:27:44;101767.69;;;16.54;100.00
32320;BME280;19080;51.750;5.888;2023-10-09T06:30:20;101766.84;;;16.63;100.00
32320;BME280;19080;51.750;5.888;2023-10-09T06:32:51;101763.31;;;16.66;100.00
32320;BME280;19080;51.750;5.888;2023-10-09T06:35:37;101771.38;;;16.69;100.00
32320;BME280;19080;51.750;5.888;2023-10-09T06:38:06;101764.25;;;16.74;100.00
32320;BME280;19080;51.750;5.888;2023-10-09T06:40:50;101759.78;;;16.77;100.00
32320;BME280;19080;51.750;5.888;2023-10-09T06:43:36;101741.03;;;16.80;100.00
32320;BME280;19080;51.750;5.888;2023-10-09T06:46:15;101724.94;;;16.76;100.00
32320;BME280;19080;51.750;5.888;2023-10-09T06:49:04;101703.44;;;16.67;100.00
32320;BME280;19080;51.750;5.888;2023-10-09T06:51:51;101715.09;;;16.76;100.00
32320;BME280;19080;51.750;5.888;2023-10-09T06:54:22;101724.03;;;16.78;100.00
32320;BME280;19080;51.750;5.888;2023-10-09T06:56:52;101724.03;;;16.75;100.00
32320;BME280;19080;51.750;5.888;2023-10-09T06:59:19;101740.13;;;16.78;100.00
32320;BME280;19080;51.750;5.888;2023-10-09T07:01:51;101746.44;;;16.89;100.00
32320;BME280;19080;51.750;5.888;2023-10-09T07:04:37;101731.22;;;16.88;100.00
32320;BME280;19080;51.750;5.888;2023-10-09T07:07:04;101738.41;;;16.96;100.00
32320;BME280;19080;51.750;5.888;2023-10-09T07:09:36;101732.16;;;16.98;100.00
32320;BME280;19080;51.750;5.888;2023-10-09T07:12:10;101718.75;;;17.03;100.00
32320;BME280;19080;51.750;5.888;2023-10-09T07:14:41;101716.09;;;17.10;100.00
32320;BME280;19080;51.750;5.888;2023-10-09T07:17:08;101722.34;;;17.11;100.00
32320;BME280;19080;51.750;5.888;2023-10-09T07:19:43;101717.91;;;17.20;100.00
32320;BME280;19080;51.750;5.888;2023-10-09T07:22:11;101750.09;;;17.22;100.00
32320;BME280;19080;51.750;5.888;2023-10-09T07:24:48;101756.41;;;17.33;100.00
32320;BME280;19080;51.750;5.888;2023-10-09T07:27:30;101749.22;;;17.35;100.00
32320;BME280;19080;51.750;5.888;2023-10-09T07:30:32;101770.69;;;17.37;100.00
32320;BME280;19080;51.750;5.888;2023-10-09T07:33:04;101776.06;;;17.38;100.00
32320;BME280;19080;51.750;5.888;2023-10-09T07:35:40;101777.84;;;17.45;100.00
32320;BME280;19080;51.750;5.888;2023-10-09T07:38:15;101770.69;;;17.44;100.00
32320;BME280;19080;51.750;5.888;2023-10-09T07:40:46;101752.81;;;17.49;100.00
32320;BME280;19080;51.750;5.888;2023-10-09T07:43:30;101777.91;;;17.67;100.00
32320;BME280;19080;51.750;5.888;2023-10-09T07:46:06;101779.66;;;17.62;100.00
32320;BME280;19080;51.750;5.888;2023-10-09T07:48:52;101780.59;;;17.71;100.00
32320;BME280;19080;51.750;5.888;2023-10-09T07:51:20;101774.34;;;17.74;100.00
32320;BME280;19080;51.750;5.888;2023-10-09T07:53:53;101779.72;;;17.77;100.00
32320;BME280;19080;51.750;5.888;2023-10-09T07:56:36;101779.72;;;17.74;100.00
32320;BME280;19080;51.750;5.888;2023-10-09T07:59:12;101784.19;;;17.75;100.00
32320;BME280;19080;51.750;5.888;2023-10-09T08:01:40;101762.72;;;17.79;100.00
32320;BME280;19080;51.750;5.888;2023-10-09T08:04:22;101743.91;;;17.75;100.00
32320;BME280;19080;51.750;5.888;2023-10-09T08:07:09;101722.44;;;17.69;100.00
32320;BME280;19080;51.750;5.888;2023-10-09T08:10:07;101715.25;;;17.71;100.00
32320;BME280;19080;51.750;5.888;2023-10-09T08:12:40;101700.03;;;17.79;100.00
32320;BME280;19080;51.750;5.888;2023-10-09T08:15:13;101684.81;;;17.93;100.00
32320;BME280;19080;51.750;5.888;2023-10-09T08:17:56;101702.69;;;18.03;100.00
32320;BME280;19080;51.750;5.888;2023-10-09T08:20:31;101711.63;;;18.20;100.00
32320;BME280;19080;51.750;5.888;2023-10-09T08:23:18;101694.53;;;18.41;100.00
32320;BME280;19080;51.750;5.888;2023-10-09T08:26:04;101693.56;;;18.59;100.00
32320;BME280;19080;51.750;5.888;2023-10-09T08:28:44;101693.50;;;18.80;100.00
32320;BME280;19080;51.750;5.888;2023-10-09T08:31:17;101700.50;;;19.07;100.00
32320;BME280;19080;51.750;5.888;2023-10-09T08:34:13;101729.78;;;19.59;100.00
32320;BME280;19080;51.750;5.888;2023-10-09T08:36:55;101755.63;;;19.86;100.00
32320;BME280;19080;51.750;5.888;2023-10-09T08:39:22;101750.09;;;20.01;100.00
32320;BME280;19080;51.750;5.888;2023-10-09T08:41:55;101763.47;;;20.13;100.00
32320;BME280;19080;51.750;5.888;2023-10-09T08:44:25;101767.97;;;20.11;100.00
32320;BME280;19080;51.750;5.888;2023-10-09T08:46:55;101761.66;;;20.12;100.00
32320;BME280;19080;51.750;5.888;2023-10-09T08:49:22;101755.28;;;20.23;100.00
32320;BME280;19080;51.750;5.888;2023-10-09T08:51:50;101765.03;;;20.40;100.00
32320;BME280;19080;51.750;5.888;2023-10-09T08:54:19;101764.81;;;20.59;100.00
32320;BME280;19080;51.750;5.888;2023-10-09T08:56:46;101747.72;;;20.60;100.00
32320;BME280;19080;51.750;5.888;2023-10-09T08:59:21;101762.00;;;20.69;100.00
32320;BME280;19080;51.750;5.888;2023-10-09T09:01:48;101757.22;;;20.88;100.00
32320;BME280;19080;51.750;5.888;2023-10-09T09:04:35;101761.69;;;20.91;100.00
32320;BME280;19080;51.750;5.888;2023-10-09T09:07:04;101766.88;;;21.07;100.00
32320;BME280;19080;51.750;5.888;2023-10-09T09:09:32;101762.84;;;21.40;100.00
32320;BME280;19080;51.750;5.888;2023-10-09T09:12:00;101743.28;;;21.82;100.00
32320;BME280;19080;51.750;5.888;2023-10-09T09:14:37;101768.59;;;22.30;100.00
32320;BME280;19080;51.750;5.888;2023-10-09T09:17:06;101725.66;;;22.12;100.00
32320;BME280;19080;51.750;5.888;2023-10-09T09:19:38;101768.81;;;22.18;100.00
32320;BME280;19080;51.750;5.888;2023-10-09T09:22:05;101790.50;;;22.61;100.00
32320;BME280;19080;51.750;5.888;2023-10-09T09:24:40;101791.91;;;22.83;100.00
32320;BME280;19080;51.750;5.888;2023-10-09T09:27:12;101805.69;;;22.69;100.00
32320;BME280;19080;51.750;5.888;2023-10-09T09:29:41;101806.13;;;22.48;100.00
32320;BME280;19080;51.750;5.888;2023-10-09T09:32:10;101792.47;;;22.99;100.00
32320;BME280;19080;51.750;5.888;2023-10-09T09:34:51;101798.72;;;23.44;100.00
32320;BME280;19080;51.750;5.888;2023-10-09T09:37:28;101795.47;;;23.27;100.00
32320;BME280;19080;51.750;5.888;2023-10-09T09:39:57;101788.72;;;23.06;100.00
32320;BME280;19080;51.750;5.888;2023-10-09T09:42:24;101798.03;;;22.93;100.00
32320;BME280;19080;51.750;5.888;2023-10-09T09:44:52;101804.81;;;22.67;100.00
32320;BME280;19080;51.750;5.888;2023-10-09T09:47:19;101782.34;;;22.62;100.00
32320;BME280;19080;51.750;5.888;2023-10-09T09:49:56;101785.00;;;22.65;100.00
32320;BME280;19080;51.750;5.888;2023-10-09T09:52:38;101806.44;;;22.79;100.00
32320;BME280;19080;51.750;5.888;2023-10-09T09:55:08;101811.09;;;22.69;100.00
32320;BME280;19080;51.750;5.888;2023-10-09T10:00:09;101818.03;;;22.86;100.00
32320;BME280;19080;51.750;5.888;2023-10-09T10:02:57;101815.88;;;23.03;100.00
32320;BME280;19080;51.750;5.888;2023-10-09T10:05:27;101811.41;;;23.00;100.00
32320;BME280;19080;51.750;5.888;2023-10-09T10:07:58;101811.94;;;22.73;100.00
32320;BME280;19080;51.750;5.888;2023-10-09T10:10:39;101794.00;;;22.67;100.00
32320;BME280;19080;51.750;5.888;2023-10-09T10:13:15;101807.59;;;22.64;100.00
32320;BME280;19080;51.750;5.888;2023-10-09T10:15:58;101815.59;;;22.70;100.00
32320;BME280;19080;51.750;5.888;2023-10-09T10:18:32;101798.16;;;22.87;100.00
32320;BME280;19080;51.750;5.888;2023-10-09T10:23:53;101804.97;;;23.06;100.00
32320;BME280;19080;51.750;5.888;2023-10-09T10:26:22;101806.13;;;22.94;100.00
32320;BME280;19080;51.750;5.888;2023-10-09T10:29:15;101802.72;;;22.83;100.00
32320;BME280;19080;51.750;5.888;2023-10-09T10:32:00;101798.22;;;22.84;100.00
32320;BME280;19080;51.750;5.888;2023-10-09T10:37:12;101803.78;;;23.19;100.00
32320;BME280;19080;51.750;5.888;2023-10-09T10:39:52;101801.13;;;23.58;100.00
32320;BME280;19080;51.750;5.888;2023-10-09T10:42:25;101777.13;;;23.80;100.00
32320;BME280;19080;51.750;5.888;2023-10-09T10:45:01;101791.56;;;24.16;100.00
32320;BME280;19080;51.750;5.888;2023-10-09T10:47:29;101794.41;;;24.45;100.00
32320;BME280;19080;51.750;5.888;2023-10-09T10:50:02;101805.75;;;24.27;100.00
32320;BME280;19080;51.750;5.888;2023-10-09T10:53:11;101800.91;;;24.38;100.00
32320;BME280;19080;51.750;5.888;2023-10-09T10:56:02;101802.03;;;24.63;100.00
32320;BME280;19080;51.750;5.888;2023-10-09T10:58:42;101787.59;;;24.61;100.00
32320;BME280;19080;51.750;5.888;2023-10-09T11:01:36;101777.94;;;24.51;100.00
32320;BME280;19080;51.750;5.888;2023-10-09T11:04:23;101797.53;;;24.62;100.00
32320;BME280;19080;51.750;5.888;2023-10-09T11:06:58;101814.38;;;24.75;100.00
32320;BME280;19080;51.750;5.888;2023-10-09T11:12:28;101807.13;;;24.76;100.00
32320;BME280;19080;51.750;5.888;2023-10-09T11:15:14;101807.72;;;24.87;100.00
32320;BME280;19080;51.750;5.888;2023-10-09T11:18:06;101791.47;;;25.16;100.00
32320;BME280;19080;51.750;5.888;2023-10-09T11:20:51;101800.09;;;25.88;100.00
32320;BME280;19080;51.750;5.888;2023-10-09T11:23:42;101792.88;;;25.87;100.00
32320;BME280;19080;51.750;5.888;2023-10-09T11:26:18;101768.00;;;25.71;100.00
32320;BME280;19080;51.750;5.888;2023-10-09T11:29:08;101795.09;;;26.01;100.00
32320;BME280;19080;51.750;5.888;2023-10-09T11:32:01;101792.38;;;26.27;100.00
32320;BME280;19080;51.750;5.888;2023-10-09T11:34:30;101790.81;;;26.20;100.00
32320;BME280;19080;51.750;5.888;2023-10-09T11:36:59;101745.34;;;25.43;100.00
32320;BME280;19080;51.750;5.888;2023-10-09T11:39:32;101790.09;;;25.60;100.00
32320;BME280;19080;51.750;5.888;2023-10-09T11:42:06;101793.56;;;25.36;100.00
32320;BME280;19080;51.750;5.888;2023-10-09T11:44:41;101788.50;;;24.93;100.00
32320;BME280;19080;51.750;5.888;2023-10-09T11:47:11;101779.28;;;24.67;100.00
32320;BME280;19080;51.750;5.888;2023-10-09T11:49:58;101782.69;;;24.43;100.00
32320;BME280;19080;51.750;5.888;2023-10-09T11:52:29;101790.91;;;24.40;100.00
32320;BME280;19080;51.750;5.888;2023-10-09T11:55:03;101787.19;;;24.10;100.00
32320;BME280;19080;51.750;5.888;2023-10-09T11:57:30;101796.50;;;24.00;100.00
32320;BME280;19080;51.750;5.888;2023-10-09T11:59:58;101800.94;;;24.02;100.00
32320;BME280;19080;51.750;5.888;2023-10-09T12:02:29;101800.94;;;24.02;100.00
32320;BME280;19080;51.750;5.888;2023-10-09T12:04:58;101798.13;;;24.07;100.00
32320;BME280;19080;51.750;5.888;2023-10-09T12:07:24;101787.03;;;24.16;100.00
32320;BME280;19080;51.750;5.888;2023-10-09T12:09:51;101778.53;;;24.30;100.00
32320;BME280;19080;51.750;5.888;2023-10-09T12:12:22;101783.03;;;24.63;100.00
32320;BME280;19080;51.750;5.888;2023-10-09T12:14:53;101775.56;;;24.39;100.00
32320;BME280;19080;51.750;5.888;2023-10-09T12:17:20;101792.13;;;24.28;100.00
32320;BME280;19080;51.750;5.888;2023-10-09T12:19:51;101764.09;;;24.28;100.00
32320;BME280;19080;51.750;5.888;2023-10-09T12:22:18;101781.59;;;24.50;100.00
32320;BME280;19080;51.750;5.888;2023-10-09T12:24:47;101779.38;;;24.64;100.00
32320;BME280;19080;51.750;5.888;2023-10-09T12:27:14;101754.28;;;24.56;100.00
32320;BME280;19080;51.750;5.888;2023-10-09T12:29:43;101770.38;;;24.62;100.00
32320;BME280;19080;51.750;5.888;2023-10-09T12:32:15;101778.63;;;24.90;100.00
32320;BME280;19080;51.750;5.888;2023-10-09T12:34:46;101765.59;;;25.33;100.00
32320;BME280;19080;51.750;5.888;2023-10-09T12:37:17;101770.75;;;25.12;100.00
32320;BME280;19080;51.750;5.888;2023-10-09T12:39:47;101772.53;;;25.13;100.00
32320;BME280;19080;51.750;5.888;2023-10-09T12:42:14;101767.00;;;25.16;100.00
32320;BME280;19080;51.750;5.888;2023-10-09T12:44:43;101764.06;;;24.93;100.00
32320;BME280;19080;51.750;5.888;2023-10-09T12:47:11;101761.22;;;24.66;100.00
32320;BME280;19080;51.750;5.888;2023-10-09T12:49:38;101755.63;;;24.73;100.00
32320;BME280;19080;51.750;5.888;2023-10-09T12:52:07;101750.34;;;24.66;100.00
32320;BME280;19080;51.750;5.888;2023-10-09T12:54:43;101748.22;;;24.78;100.00
32320;BME280;19080;51.750;5.888;2023-10-09T12:57:09;101749.56;;;24.94;100.00
32320;BME280;19080;51.750;5.888;2023-10-09T12:59:41;101755.16;;;24.88;100.00
32320;BME280;19080;51.750;5.888;2023-10-09T13:02:15;101756.59;;;24.70;100.00
32320;BME280;19080;51.750;5.888;2023-10-09T13:04:58;101757.75;;;24.61;100.00
32320;BME280;19080;51.750;5.888;2023-10-09T13:07:26;101750.34;;;24.66;100.00
32320;BME280;19080;51.750;5.888;2023-10-09T13:09:53;101751.13;;;24.72;100.00
32320;BME280;19080;51.750;5.888;2023-10-09T13:12:35;101751.88;;;24.77;100.00
32320;BME280;19080;51.750;5.888;2023-10-09T13:15:09;101766.13;;;24.85;100.00
32320;BME280;19080;51.750;5.888;2023-10-09T13:17:38;101759.03;;;24.79;100.00
32320;BME280;19080;51.750;5.888;2023-10-09T13:20:05;101751.28;;;24.65;100.00
32320;BME280;19080;51.750;5.888;2023-10-09T13:22:43;101761.47;;;24.57;100.00
32320;BME280;19080;51.750;5.888;2023-10-09T13:25:10;101763.34;;;24.55;100.00
32320;BME280;19080;51.750;5.888;2023-10-09T13:28:00;101771.66;;;24.49;100.00
32320;BME280;19080;51.750;5.888;2023-10-09T13:30:31;101778.28;;;24.39;100.00
32320;BME280;19080;51.750;5.888;2023-10-09T13:33:05;101773.88;;;24.35;100.00